Weather observations for the past three days for
Rutherfordton, Rutherford County-Marchman Field Airport
Metric (Imperial)
Date Time (edt) Wind (kph) Vis. (km) Weather Sky Cond. Temperature (ºC) Relative Humidity Wind Chill (°C) Heat Index (°C) Pressure Precipitation (cm)
Air Dwpt 6 hour altimeter (cm) sea level (mb) 1 hr 3 hr 6 hr
Max. Min.
05 21:35 S 7 16.09 Partly Cloudy SCT120 19 8 49% 76.1 0.0
05 21:15 S 7 16.09 Partly Cloudy SCT120 19 8 49% 76.07 0.0
05 20:55 S 7 16.09 Partly Cloudy SCT075 20 7 43% 76.05 0.0
05 20:35 S 7 16.09 Partly Cloudy SCT075 20 7 43% 76.05 0.0
05 20:15 S 7 16.09 Partly Cloudy SCT075 21 7 40% 76.05 0.0
05 19:55 SW 9 16.09 Fair CLR 22 7 38% 76.05 0.0
05 19:35 S 9 16.09 Partly Cloudy SCT075 23 7 36% 76.05 0.0
05 19:15 S 15 G 26 16.09 Partly Cloudy SCT075 23 6 33% 76.05 0.0
05 18:55 S 15 G 26 16.09 Partly Cloudy SCT075 23 7 36% 76.05 0.0
05 18:35 SW 11 16.09 Partly Cloudy SCT075 24 6 31% 25 76.05 0.0
05 18:15 S 19 16.09 Fair CLR 24 6 31% 25 76.07 0.0
05 17:55 SW 13 16.09 Fair CLR 25 6 30% 25 76.05 0.0
05 17:35 SW 11 G 26 16.09 Fair CLR 25 6 30% 25 76.05 0.0
05 17:15 S 19 G 28 16.09 Fair CLR 25 6 30% 25 76.07 0.0
05 16:55 SW 20 G 31 16.09 Fair CLR 24 6 31% 25 76.07 0.0
05 16:35 SW 17 G 26 16.09 Fair CLR 25 5 28% 25 76.1 0.0
05 16:15 S 28 G 37 16.09 Fair CLR 25 5 28% 25 76.1 0.0
05 15:35 SW 19 G 33 16.09 Fair CLR 25 5 28% 25 76.15 0.0
05 15:15 SW 13 G 31 16.09 Fair CLR 25 6 30% 25 76.15 0.0
05 14:55 SW 13 16.09 Fair CLR 25 5 28% 25 76.17 0.0
05 14:35 SW 24 G 37 16.09 Fair CLR 25 5 28% 25 76.2 0.0
05 14:15 S 24 G 37 16.09 Fair CLR 25 5 28% 25 76.23 0.0
05 13:55 SW 17 G 28 16.09 Fair CLR 24 5 29% 25 76.25 0.0
05 13:35 SW 15 G 28 16.09 Fair CLR 23 6 33% 76.25 0.0
05 13:15 SW 22 G 37 16.09 Fair CLR 23 6 33% 76.28 0.0
05 12:55 S 24 G 35 16.09 Fair CLR 23 6 33% 76.25 0.0
05 12:35 SW 15 G 26 16.09 Fair CLR 23 6 33% 76.25 0.0
05 12:15 SW 17 16.09 Fair CLR 22 6 36% 76.25 0.0
05 11:55 S 15 G 35 16.09 Fair CLR 23 7 36% 76.28 0.0
05 11:35 S 19 16.09 Fair CLR 22 7 38% 76.3 0.0
05 11:15 S 17 16.09 Fair CLR 21 7 40% 76.33 0.0
05 10:55 S 11 16.09 Fair CLR 20 8 46% 76.33 0.0
05 10:35 S 9 16.09 Fair CLR 18 7 49% 76.33 0.0
05 10:15 S 11 16.09 Fair CLR 18 7 49% 76.33 0.0
05 09:55 S 9 16.09 Fair CLR 17 7 52% 76.3 0.0
05 09:35 S 6 16.09 Fair CLR 16 8 59% 76.28 0.0
05 09:15 SE 6 16.09 Fair CLR 15 7 59% 76.28 0.0
05 08:55 Calm 16.09 Fair CLR 13 7 67% 76.3 0.0
05 08:35 Calm 16.09 Fair CLR 13 7 67% 76.3 0.0
05 08:15 E 6 16.09 Fair CLR 12 7 72% 76.25 0.0
05 07:55 Calm 16.09 Fair CLR 10 8 88% 76.25 0.0
05 07:35 Calm 16.09 Fair CLR 10 6 76% 76.28 0.0
05 07:15 Calm 16.09 Fair CLR 8 6 87% 76.25 0.0
05 06:55 Calm 16.09 Fair CLR 9 6 82% 76.25 0.0
05 06:35 Calm 16.09 Fair CLR 10 6 76% 76.25 0.0
05 06:15 Calm 16.09 Fair CLR 10 6 76% 76.25 0.0
05 05:55 E 6 16.09 Fair CLR 10 6 76% 76.23 0.0
05 05:35 Calm 16.09 Fair CLR 10 5 71% 76.23 0.0
05 05:15 NE 7 16.09 Fair CLR 10 6 76% 9 76.23 0.0
05 04:55 NE 6 16.09 Fair CLR 10 6 76% 76.2 0.0
05 04:35 E 6 16.09 Fair CLR 11 6 72% 76.17 0.0
05 04:15 E 6 16.09 Fair CLR 11 5 67% 76.17 0.0
05 03:55 SE 7 16.09 Fair CLR 12 6 67% 76.15 0.0
05 03:35 SE 9 16.09 Fair CLR 12 6 67% 76.15 0.0
05 03:15 E 7 16.09 Fair CLR 10 6 76% 9 76.15 0.0
05 02:55 Calm 16.09 Fair CLR 12 5 63% 76.15 0.0
05 02:35 Calm 16.09 Fair CLR 13 5 59% 76.15 0.0
05 02:15 Calm 16.09 Fair CLR 13 5 59% 76.17 0.0
05 01:55 Calm 16.09 Fair CLR 13 5 59% 76.17 0.0
05 01:35 Calm 16.09 Fair CLR 14 5 55% 76.17 0.0
05 01:15 S 7 16.09 Fair CLR 14 5 55% 76.17 0.0
05 00:55 S 11 16.09 Fair CLR 13 5 59% 76.17 0.0
05 00:35 S 9 16.09 Fair CLR 14 5 55% 76.17 0.0
05 00:15 S 9 16.09 Fair CLR 13 5 59% 76.17 0.0
04 23:55 S 6 16.09 Fair CLR 14 5 55% 76.17 0.0
04 23:35 Calm 16.09 Fair CLR 16 5 48% 76.2 0.0
04 23:15 Calm 16.09 Fair CLR 17 5 45% 76.2 0.0
04 22:55 Calm 16.09 Fair CLR 17 5 45% 76.2 0.0
04 22:35 Calm 16.09 Fair CLR 18 5 43% 76.17 0.0
04 22:15 Calm 16.09 Fair CLR 18 5 43% 76.17 0.0
04 21:55 S 7 16.09 Fair CLR 18 5 43% 76.17 0.0
04 21:35 S 7 16.09 Fair CLR 18 5 43% 76.15 0.0
04 21:15 S 9 16.09 Fair CLR 18 5 43% 76.15 0.0
04 20:55 S 9 16.09 Fair CLR 18 5 43% 76.12 0.0
04 20:35 S 9 16.09 Fair CLR 18 5 43% 76.12 0.0
04 20:15 S 9 16.09 Fair CLR 20 5 38% 76.1 0.0
04 19:55 S 7 16.09 Fair CLR 21 5 35% 76.1 0.0
04 19:35 S 11 16.09 Fair CLR 22 4 31% 76.07 0.0
04 19:15 S 17 16.09 Fair CLR 22 3 29% 76.07 0.0
04 18:55 S 17 16.09 Fair CLR 22 3 29% 76.07 0.0
04 18:35 S 13 16.09 Fair CLR 23 3 27% 76.07 0.0
04 18:15 S 15 16.09 Fair CLR 23 2 25% 76.07 0.0
04 17:55 S 13 16.09 Fair CLR 23 2 25% 76.07 0.0
04 17:35 SW 13 16.09 Fair CLR 23 2 25% 76.1 0.0
04 17:15 S 13 G 30 16.09 Fair CLR 24 3 25% 25 76.07 0.0
04 16:55 S 15 16.09 Fair CLR 24 2 24% 25 76.07 0.0
04 16:35 S 15 G 26 16.09 Fair CLR 25 2 22% 25 76.1 0.0
04 16:15 S 17 16.09 Fair CLR 26 3 23% 26 76.1 0.0
04 15:55 S 19 16.09 Fair CLR 25 3 24% 25 76.12 0.0
04 15:35 S 13 16.09 Fair CLR 25 2 22% 25 76.12 0.0
04 15:15 S 9 G 26 16.09 Fair CLR 25 1 21% 25 76.15 0.0
04 14:55 S 11 16.09 Fair CLR 25 1 21% 25 76.17 0.0
04 14:35 SW 13 16.09 Fair CLR 24 1 22% 25 76.17 0.0
04 14:15 S 13 16.09 Fair CLR 24 1 22% 25 76.2 0.0
04 13:55 SE 11 16.09 Fair CLR 23 2 25% 76.2 0.0
04 13:35 W 7 16.09 Fair CLR 23 2 25% 76.23 0.0
04 13:15 S 9 16.09 Fair CLR 23 1 23% 76.25 0.0
04 12:55 S 9 16.09 Fair CLR 22 1 25% 76.28 0.0
04 12:35 S 7 16.09 Fair CLR 22 1 25% 76.3 0.0
04 12:15 NE 6 16.09 Fair CLR 22 2 27% 76.33 0.0
04 11:55 Calm 16.09 Fair CLR 21 2 29% 76.33 0.0
04 11:35 Calm 16.09 Fair CLR 20 3 33% 76.38 0.0
04 11:15 Calm 16.09 Fair CLR 20 3 33% 76.38 0.0
04 10:55 NW 7 16.09 Fair CLR 19 3 35% 76.38 0.0
04 10:35 Calm 16.09 Fair CLR 17 3 39% 76.4 0.0
04 10:15 Calm 16.09 Fair CLR 16 3 42% 76.38 0.0
04 09:55 SW 6 16.09 Fair CLR 16 5 48% 76.38 0.0
04 09:35 Calm 16.09 Fair CLR 15 4 48% 76.38 0.0
04 09:15 Calm 16.09 Fair CLR 14 4 51% 76.38 0.0
04 08:55 Calm 16.09 Fair CLR 12 5 63% 76.38 0.0
04 08:35 Calm 16.09 Fair CLR 11 6 72% 76.38 0.0
04 08:15 Calm 16.09 Fair CLR 9 5 76% 76.35 0.0
04 07:55 NW 6 16.09 Fair CLR 7 4 81% 76.35 0.0
04 07:35 Calm 16.09 Fair CLR 5 3 87% 76.35 0.0
04 07:15 Calm 16.09 Fair CLR 5 3 87% 76.35 0.0
04 06:55 Calm 16.09 Fair CLR 4 4 100% 76.33 0.0
04 06:35 Calm 16.09 Fair CLR 3 3 100% 76.33 0.0
04 06:15 Calm 16.09 Fair CLR 3 3 100% 76.33 0.0
04 05:55 Calm 16.09 Fair CLR 3 3 100% 76.3 0.0
04 05:15 Calm 16.09 Fair CLR 3 3 100% 76.33 0.0
04 04:55 NW 6 16.09 Fair CLR 3 3 100% 76.35 0.0
04 04:35 NW 6 16.09 Fair CLR 4 3 93% 76.33 0.0
04 04:15 Calm 16.09 Fair CLR 4 4 100% 76.3 0.0
04 03:55 NW 6 16.09 Fair CLR 5 4 93% 76.28 0.0
04 03:35 NW 6 16.09 Fair CLR 5 5 100% 76.3 0.0
04 03:15 Calm 16.09 Fair CLR 5 5 100% 76.3 0.0
04 02:55 Calm 16.09 Fair CLR 5 5 100% 76.3 0.0
04 02:35 Calm 16.09 Fair CLR 6 4 87% 76.3 0.0
04 02:15 Calm 16.09 Fair CLR 6 5 93% 76.3 0.0
04 01:55 Calm 16.09 Fair CLR 6 5 93% 76.33 0.0
04 01:35 Calm 16.09 Fair CLR 7 5 87% 76.33 0.0
04 01:15 Calm 16.09 Fair CLR 8 4 76% 76.33 0.0
04 00:55 NW 6 16.09 Fair CLR 7 4 81% 76.33 0.0
04 00:35 Calm 16.09 Fair CLR 8 4 76% 76.3 0.0
04 00:15 Calm 16.09 Fair CLR 9 4 71% 76.3 0.0
03 23:55 Calm 16.09 Fair CLR 11 3 58% 76.33 0.0
03 23:35 Calm 16.09 Fair CLR 10 4 67% 76.3 0.0
03 23:15 Calm 16.09 Fair CLR 10 4 67% 76.33 0.0
03 22:55 Calm 16.09 Fair CLR 11 3 58% 76.33 0.0
03 22:35 Calm 16.09 Fair CLR 11 3 58% 76.33 0.0
03 22:15 Calm 16.09 Fair CLR 14 3 48% 76.33 0.0
03 21:55 Calm 16.09 Fair CLR 14 3 48% 76.28 0.0
03 21:35 S 6 16.09 Fair CLR 15 3 45% 76.25 0.0
03 21:15 Calm 16.09 Fair CLR 15 3 45% 76.25 0.0
03 20:55 SW 6 16.09 Fair CLR 15 3 45% 76.23 0.0
03 20:35 S 7 16.09 Fair CLR 16 2 39% 76.23 0.0
03 20:15 S 7 16.09 Fair CLR 16 2 39% 76.23 0.0
03 19:55 S 6 16.09 Fair CLR 17 2 37% 76.2 0.0
03 19:35 S 7 16.09 Fair CLR 18 2 34% 76.2 0.0
03 19:15 S 9 16.09 Fair CLR 18 2 34% 76.2 0.0
03 18:55 S 11 16.09 Fair CLR 19 2 32% 76.2 0.0
03 18:35 S 15 16.09 Fair CLR 19 2 32% 76.2 0.0
03 18:15 S 11 16.09 Fair CLR 19 2 32% 76.2 0.0
03 17:55 SW 6 16.09 Fair CLR 20 2 30% 76.2 0.0
03 17:35 S 15 16.09 Fair CLR 20 1 28% 76.23 0.0
03 17:15 S 15 G 26 16.09 Fair CLR 20 1 28% 76.25 0.0
03 16:55 SW 7 16.09 Fair CLR 20 0 26% 76.25 0.0
03 16:35 S 17 16.09 Fair CLR 20 0 26% 76.28 0.0
03 16:15 SW 9 16.09 Fair CLR 20 -1 24% 76.28 0.0
03 15:55 Calm 16.09 Fair CLR 21 -3 20% 76.3 0.0
03 15:35 S 11 16.09 Fair CLR 20 -4 20% 76.33 0.0
03 15:15 SW 6 16.09 Fair CLR 19 -3 22% 76.38 0.0
03 14:35 Calm 16.09 Fair CLR 18 -1 28% 76.4 0.0
03 14:15 SW 11 16.09 Fair CLR 18 -1 28% 76.43 0.0
03 13:55 Calm 16.09 Fair CLR 17 -2 27% 76.43 0.0
03 13:35 W 17 16.09 Fair CLR 17 -2 27% 76.45 0.0
03 13:15 W 9 16.09 Fair CLR 17 -2 27% 76.48 0.0
03 12:55 W 7 16.09 Fair CLR 16 -1 31% 76.5 0.0
03 12:35 Calm 16.09 Fair CLR 16 0 34% 76.53 0.0
03 12:15 W 7 16.09 Fair CLR 16 0 34% 76.56 0.0
03 11:55 NW 11 16.09 Fair CLR 16 0 34% 76.56 0.0
03 11:35 Calm 16.09 Fair CLR 15 0 36% 76.58 0.0
03 11:15 Calm 16.09 Fair CLR 15 0 36% 76.58 0.0
03 10:55 NW 9 16.09 Fair CLR 14 0 39% 76.58 0.0
03 10:35 Calm 16.09 Fair CLR 13 0 41% 76.58 0.0
03 10:15 NW 6 16.09 Fair CLR 13 1 44% 76.58 0.0
03 09:55 N 9 16.09 Fair CLR 13 1 44% 76.58 0.0
03 09:35 N 9 16.09 Fair CLR 12 0 44% 76.58 0.0
03 09:15 Calm 16.09 Fair CLR 11 1 50% 76.58 0.0
03 08:35 NW 6 16.09 Fair CLR 10 1 54% 76.58 0.0
03 08:15 Calm 16.09 Fair CLR 8 2 66% 76.56 0.0
03 07:55 Calm 16.09 Fair CLR 6 2 76% 76.56 0.0
03 07:35 Calm 16.09 Fair CLR 3 1 87% 76.56 0.0
03 07:15 Calm 16.09 Fair CLR 2 1 93% 76.5 0.0
03 06:55 W 6 16.09 Fair CLR 1 1 100% 76.5 0.0
03 06:35 Calm 16.09 Fair CLR 2 1 93% 76.48 0.0
03 06:15 Calm 16.09 Fair CLR 1 1 100% 76.45 0.0
03 05:55 NW 6 16.09 Fair CLR 2 1 93% 76.43 0.0
03 05:35 Calm 16.09 Fair CLR 1 0 93% 76.43 0.0
03 05:15 NW 6 16.09 Fair CLR 2 2 100% 76.4 0.0
03 04:55 Calm 16.09 Fair CLR 3 1 87% 76.4 0.0
03 04:35 Calm 16.09 Fair CLR 3 2 93% 76.38 0.0
03 04:15 NW 6 16.09 Fair CLR 2 1 93% 76.38 0.0
03 03:55 Calm 16.09 Fair CLR 5 1 76% 76.35 0.0
03 03:35 Calm 16.09 Fair CLR 3 2 93% 76.35 0.0
03 03:15 NW 7 16.09 Fair CLR 4 1 81% 2 76.33 0.0
03 02:55 W 6 16.09 Fair CLR 5 1 76% 76.3 0.0
03 02:35 Calm 16.09 Fair CLR 5 1 76% 76.3 0.0
03 02:15 Calm 16.09 Fair CLR 5 2 81% 76.3 0.0
03 01:55 Calm 16.09 Fair CLR 3 2 93% 76.3 0.0
03 01:35 NW 6 16.09 Fair CLR 5 2 81% 76.3 0.0
03 01:15 Calm 16.09 Fair CLR 6 1 71% 76.3 0.0
03 00:55 NW 7 16.09 Fair CLR 6 1 71% 5 76.3 0.0
03 00:15 Calm 16.09 Fair CLR 6 1 71% 76.25 0.0
02 23:55 Calm 16.09 Fair CLR 9 0 54% 76.25 0.0
02 23:35 Calm 16.09 Fair CLR 10 0 50% 76.23 0.0
02 23:15 Calm 16.09 Fair CLR 10 0 50% 76.23 0.0
02 22:55 N 6 16.09 Fair CLR 11 0 47% 76.23 0.0
02 22:35 Calm 16.09 Fair CLR 10 0 50% 76.2 0.0
02 22:15 N 6 16.09 Fair CLR 11 0 47% 76.2 0.0
Date Time (edt) Wind (kph) Vis. (km) Weather Sky Cond. Air Dwpt Max. Min. Relative Humidity Wind Chill (°C) Heat Index (°C) altimeter (cm) sea level (mb) 1 hr 3 hr 6 hr
6 hour
Temperature (ºC) Pressure Precipitation (cm)